Quakertown, Pennsylvania
Current Conditions -  °F | °C
As of 1:35 AM on Thursday 23 Oct 2014 (Local Time) from KUKT Reporting Station
Overcast Overcast  
Wind Chill: 44°   Ceiling: 3800
Heat Index: 48°   Visibility: 10mi
Dew Point: 46°   Wind: 10mph
Humidity: 93%   Direction: 350°N
Pressure: 29.8"   Gusts: 17mph
Location:  40.44°N, 75.34°W
Report Text: KUKT 230535Z AUTO 35009G15KT 10SM FEW019 SCT027 OVC038 09/08 A2980 RMK AO1
Loading
Personal Weather Stations






























Interactive Weather Map
Tropical Storm Tracking
New forecast layout! Learn more

10-Day Weather Forecast

Advertisements
Track Severe Weather on mobile